Time;durP1;ratioP1;P1;durP2;ratioP2;P2;SDS_P1;SDS_P2;PMS_P1;PMS_P2;Temp;Humidity;BMP_temperature;BMP_pressure;BME280_temperature;BME280_humidity;BME280_pressure;Samples;Min_cycle;Max_cycle;Signal;HPM_P1;HPM_P2
2022/05/19 00:01:01;;;;;;;2.92;2.70;;;18.00;60.80;;;;;;4974926;28;20026;-72
2022/05/19 00:03:27;;;;;;;3.58;2.80;;;18.00;60.90;;;;;;4979508;28;20144;-72
2022/05/19 00:05:52;;;;;;;3.72;2.92;;;17.90;60.90;;;;;;4975329;28;20501;-72
2022/05/19 00:08:18;;;;;;;5.63;2.75;;;17.90;61.00;;;;;;4981879;28;20044;-73
2022/05/19 00:10:43;;;;;;;4.22;2.80;;;17.80;61.10;;;;;;4982050;28;20068;-73
2022/05/19 00:13:09;;;;;;;5.07;2.83;;;17.80;61.30;;;;;;4998956;28;20144;-73
2022/05/19 00:15:34;;;;;;;3.97;2.75;;;17.80;61.40;;;;;;5013809;28;20064;-73
2022/05/19 00:18:00;;;;;;;4.22;2.63;;;17.70;61.60;;;;;;4981327;28;20048;-72
2022/05/19 00:20:25;;;;;;;4.65;2.92;;;17.70;61.70;;;;;;4982809;28;20042;-72
2022/05/19 00:22:51;;;;;;;3.97;2.67;;;17.60;61.70;;;;;;4949507;28;20034;-72
2022/05/19 00:25:17;;;;;;;4.03;2.83;;;17.60;61.80;;;;;;4966893;28;20044;-73
2022/05/19 00:27:42;;;;;;;3.53;3.22;;;17.60;62.10;;;;;;4971022;28;20521;-72
2022/05/19 00:30:08;;;;;;;3.42;3.00;;;17.50;62.10;;;;;;4995244;28;20041;-71
2022/05/19 00:32:34;;;;;;;6.22;3.10;;;17.50;62.20;;;;;;4995361;28;20041;-72
2022/05/19 00:34:59;;;;;;;3.60;2.88;;;17.50;62.30;;;;;;5018698;28;20063;-71
2022/05/19 00:37:25;;;;;;;4.13;3.20;;;17.40;62.50;;;;;;5001114;28;20065;-72
2022/05/19 00:39:50;;;;;;;6.85;2.80;;;17.40;62.60;;;;;;5017694;28;20041;-72
2022/05/19 00:45:01;;;;;;;3.58;2.75;;;17.30;62.80;;;;;;4988106;28;20105;-73
2022/05/19 00:47:29;;;;;;;5.05;3.30;;;17.30;62.80;;;;;;4960728;28;20042;-72
2022/05/19 00:49:55;;;;;;;6.68;3.20;;;17.20;62.90;;;;;;4972765;28;20130;-71
2022/05/19 00:52:29;;;;;;;5.30;3.47;;;17.20;63.00;;;;;;4985838;28;20497;-73
2022/05/19 00:55:01;;;;;;;3.72;2.80;;;17.20;63.30;;;;;;4981864;28;20040;-72
2022/05/19 00:57:28;;;;;;;3.15;2.85;;;17.10;63.30;;;;;;4978514;28;20040;-72
2022/05/19 01:00:11;;;;;;;3.30;2.88;;;17.10;63.50;;;;;;5003796;28;20045;-73
2022/05/19 01:02:42;;;;;;;3.88;2.83;;;17.10;63.60;;;;;;4992969;28;20033;-73
2022/05/19 01:05:12;;;;;;;5.90;2.93;;;17.00;63.60;;;;;;4986952;28;20034;-72
2022/05/19 01:08:09;;;;;;;5.22;2.83;;;17.00;63.60;;;;;;4977967;28;20083;-72
2022/05/19 01:10:36;;;;;;;4.90;3.00;;;16.90;63.80;;;;;;4980910;28;20092;-73
2022/05/19 01:13:01;;;;;;;4.53;3.22;;;16.90;63.70;;;;;;5001948;28;20034;-74
2022/05/19 01:15:27;;;;;;;3.05;2.75;;;16.90;63.90;;;;;;4977001;28;20034;-75
2022/05/19 01:17:52;;;;;;;3.72;3.33;;;16.80;64.00;;;;;;4982022;28;20037;-73
2022/05/19 01:20:24;;;;;;;3.17;2.88;;;16.80;64.20;;;;;;5001544;28;20044;-74
2022/05/19 01:22:52;;;;;;;5.55;3.10;;;16.80;64.20;;;;;;4995990;28;20045;-73
2022/05/19 01:25:32;;;;;;;3.45;2.92;;;16.70;64.30;;;;;;4993842;28;20128;-74
2022/05/19 01:27:58;;;;;;;4.55;3.17;;;16.70;64.90;;;;;;4999404;28;20753;-74
2022/05/19 01:30:24;;;;;;;5.95;3.38;;;16.70;64.40;;;;;;4952422;28;20164;-71
2022/05/19 01:32:51;;;;;;;3.97;3.40;;;16.60;64.50;;;;;;4975674;28;20125;-73
2022/05/19 01:35:16;;;;;;;3.75;2.97;;;16.60;64.70;;;;;;4997058;28;20029;-73
2022/05/19 01:37:42;;;;;;;3.58;3.15;;;16.50;64.60;;;;;;4995007;28;20037;-73
2022/05/19 01:40:26;;;;;;;4.07;3.05;;;16.50;64.80;;;;;;4974861;28;20505;-74
2022/05/19 01:43:29;;;;;;;3.20;2.80;;;16.50;65.40;;;;;;5016033;28;20041;-74
2022/05/19 01:46:09;;;;;;;5.20;3.47;;;16.40;65.40;;;;;;5016324;28;20046;-74
2022/05/19 01:48:38;;;;;;;3.67;3.05;;;16.40;65.30;;;;;;5019348;28;20045;-74
2022/05/19 01:51:14;;;;;;;4.10;2.92;;;16.30;65.10;;;;;;4994587;28;20034;-73
2022/05/19 01:53:39;;;;;;;3.17;2.92;;;16.30;65.30;;;;;;5000270;28;20117;-74
2022/05/19 01:56:26;;;;;;;3.80;3.35;;;16.30;65.30;;;;;;5001752;28;20116;-73
2022/05/19 01:59:20;;;;;;;3.55;3.00;;;16.20;65.50;;;;;;4980505;28;20119;-73
2022/05/19 02:02:19;;;;;;;3.50;3.20;;;16.20;65.90;;;;;;5002825;28;20013;-73
2022/05/19 02:04:53;;;;;;;5.15;3.30;;;16.20;65.60;;;;;;4961797;28;20025;-73
2022/05/19 02:07:19;;;;;;;3.97;3.10;;;16.10;66.00;;;;;;4992776;28;20036;-73
2022/05/19 02:09:53;;;;;;;4.03;3.63;;;16.10;65.80;;;;;;4996335;28;20109;-73
2022/05/19 02:12:19;;;;;;;3.92;3.08;;;16.10;66.10;;;;;;4972331;28;20052;-73
2022/05/19 02:15:03;;;;;;;5.07;3.25;;;16.10;66.00;;;;;;4986417;28;20065;-73
2022/05/19 02:17:29;;;;;;;3.75;3.42;;;16.00;66.60;;;;;;4999375;28;20561;-74
2022/05/19 02:20:03;;;;;;;3.97;3.40;;;16.00;66.30;;;;;;4957960;28;20124;-74
2022/05/19 02:22:33;;;;;;;4.63;3.05;;;16.00;66.50;;;;;;4982562;28;20026;-72
2022/05/19 02:25:03;;;;;;;5.13;3.35;;;15.90;66.60;;;;;;4983948;28;20025;-73
2022/05/19 02:27:45;;;;;;;3.83;3.22;;;15.90;66.80;;;;;;4994156;28;20030;-74
2022/05/19 02:30:11;;;;;;;;;;;15.80;66.80;;;;;;4987136;28;20052;-74
2022/05/19 02:32:37;;;;;;;4.30;3.00;;;15.80;66.50;;;;;;4995808;28;19921;-74
2022/05/19 02:35:06;;;;;;;4.50;3.33;;;15.80;66.40;;;;;;4965113;28;20109;-73
2022/05/19 02:37:33;;;;;;;3.17;2.88;;;15.80;66.80;;;;;;4971462;28;20064;-72
2022/05/19 02:39:59;;;;;;;3.88;3.58;;;15.70;66.70;;;;;;4985006;28;20473;-73
2022/05/19 02:42:25;;;;;;;3.47;3.17;;;15.70;66.70;;;;;;5016651;28;20406;-74
2022/05/19 02:44:50;;;;;;;4.80;3.20;;;15.70;67.10;;;;;;4969945;28;20116;-73
2022/05/19 02:47:16;;;;;;;3.70;3.40;;;15.60;67.90;;;;;;4997957;28;20033;-75
2022/05/19 02:49:41;;;;;;;4.90;3.40;;;15.60;67.20;;;;;;5008424;28;20099;-73
2022/05/19 02:52:07;;;;;;;4.97;3.08;;;15.60;67.50;;;;;;4982241;28;20045;-73
2022/05/19 02:54:32;;;;;;;4.18;2.90;;;15.60;67.60;;;;;;5000773;28;20498;-75
2022/05/19 02:56:58;;;;;;;4.28;3.20;;;15.60;67.60;;;;;;4998446;28;20038;-73
2022/05/19 02:59:24;;;;;;;5.00;3.10;;;15.50;67.60;;;;;;5000560;28;20393;-73
2022/05/19 03:01:49;;;;;;;5.75;3.53;;;15.50;67.70;;;;;;4984393;28;20394;-73
2022/05/19 03:04:15;;;;;;;3.30;3.00;;;15.50;67.80;;;;;;4988910;28;20135;-73
2022/05/19 03:06:40;;;;;;;7.63;3.30;;;15.40;67.90;;;;;;5015326;28;20030;-73
2022/05/19 03:09:06;;;;;;;4.95;3.47;;;15.40;67.90;;;;;;4995763;28;20021;-73
2022/05/19 03:11:31;;;;;;;3.40;3.10;;;15.40;68.00;;;;;;4973114;28;20038;-73
2022/05/19 03:13:57;;;;;;;3.60;3.22;;;15.40;68.10;;;;;;4974580;28;20036;-73
2022/05/19 03:16:22;;;;;;;4.97;3.38;;;15.30;68.10;;;;;;4996868;28;20140;-73
2022/05/19 03:18:48;;;;;;;3.30;2.63;;;15.30;68.10;;;;;;4972057;28;20060;-74
2022/05/19 03:21:13;;;;;;;4.22;3.47;;;15.30;68.20;;;;;;4998746;28;20128;-73
2022/05/19 03:23:39;;;;;;;3.70;2.90;;;15.30;68.30;;;;;;4986864;28;20083;-74
2022/05/19 03:26:05;;;;;;;6.10;3.20;;;15.30;68.30;;;;;;5015614;28;20122;-73
2022/05/19 03:28:30;;;;;;;3.50;3.20;;;15.20;68.40;;;;;;4970978;28;20079;-73
2022/05/19 03:30:56;;;;;;;4.05;3.30;;;15.20;68.40;;;;;;4998318;28;20046;-73
2022/05/19 03:33:21;;;;;;;4.95;3.10;;;15.20;68.60;;;;;;4982955;28;20044;-74
2022/05/19 03:35:58;;;;;;;3.70;3.17;;;15.20;68.60;;;;;;4978613;28;20038;-75
2022/05/19 03:38:23;;;;;;;4.38;3.20;;;15.10;68.90;;;;;;4983387;28;20192;-73
2022/05/19 03:40:49;;;;;;;6.57;3.08;;;15.10;68.80;;;;;;4987624;28;20045;-73
2022/05/19 03:43:14;;;;;;;5.28;3.63;;;15.10;68.90;;;;;;4987077;28;20941;-73
2022/05/19 03:45:40;;;;;;;3.30;3.00;;;15.10;68.90;;;;;;5002424;28;20529;-74
2022/05/19 03:48:06;;;;;;;6.72;3.65;;;15.00;69.00;;;;;;4995769;28;20026;-76
2022/05/19 03:50:31;;;;;;;3.72;3.35;;;15.00;69.10;;;;;;4984643;28;20037;-74
2022/05/19 03:52:57;;;;;;;5.97;3.40;;;15.00;69.20;;;;;;4995698;28;20071;-74
2022/05/19 03:55:22;;;;;;;3.70;3.13;;;15.00;69.30;;;;;;5009599;28;20405;-74
2022/05/19 03:57:48;;;;;;;3.83;3.42;;;14.90;69.20;;;;;;4986447;28;20065;-74
2022/05/19 04:00:14;;;;;;;4.47;3.70;;;14.90;69.30;;;;;;4995098;28;20037;-74
2022/05/19 04:02:40;;;;;;;3.97;3.58;;;14.90;69.50;;;;;;4983561;28;20414;-74
2022/05/19 04:05:06;;;;;;;5.82;3.58;;;14.90;69.50;;;;;;4986183;28;20033;-74
2022/05/19 04:07:32;;;;;;;3.63;3.22;;;14.80;69.40;;;;;;4980248;28;20033;-73
2022/05/19 04:09:57;;;;;;;4.10;3.65;;;14.80;69.50;;;;;;4985624;28;20041;-73
2022/05/19 04:12:23;;;;;;;4.20;3.55;;;14.80;69.70;;;;;;4983554;28;20045;-74
2022/05/19 04:14:49;;;;;;;4.30;3.78;;;14.80;69.90;;;;;;4999384;28;20091;-73
2022/05/19 04:17:15;;;;;;;5.88;3.53;;;14.80;70.00;;;;;;5015237;28;20129;-73
2022/05/19 04:19:40;;;;;;;4.45;3.25;;;14.80;70.10;;;;;;4984116;28;20116;-73
2022/05/19 04:22:06;;;;;;;3.70;3.40;;;14.80;70.10;;;;;;4993027;28;20069;-73
2022/05/19 04:24:31;;;;;;;3.50;3.20;;;14.80;70.20;;;;;;4998952;28;20056;-75
2022/05/19 04:26:57;;;;;;;7.90;3.33;;;14.80;70.40;;;;;;4998201;28;20313;-73
2022/05/19 04:29:22;;;;;;;5.40;3.33;;;14.80;70.40;;;;;;4973712;28;20117;-73
2022/05/19 04:31:48;;;;;;;3.55;3.10;;;14.80;70.50;;;;;;4976766;28;20072;-73
2022/05/19 04:34:14;;;;;;;5.13;3.05;;;14.80;70.50;;;;;;4954737;28;20132;-76
2022/05/19 04:36:39;;;;;;;4.53;3.55;;;14.80;70.60;;;;;;4944182;28;20614;-77
2022/05/19 04:39:05;;;;;;;5.20;3.38;;;14.80;70.80;;;;;;5010289;28;20029;-76
2022/05/19 04:41:30;;;;;;;3.40;2.63;;;14.80;70.90;;;;;;5007176;28;20030;-76
2022/05/19 04:43:56;;;;;;;3.85;3.30;;;14.80;70.80;;;;;;4975296;28;20091;-76
2022/05/19 04:46:21;;;;;;;4.18;3.20;;;14.80;70.90;;;;;;5006073;28;20063;-76
2022/05/19 04:48:47;;;;;;;2.80;2.60;;;14.80;70.80;;;;;;4997735;28;20029;-76
2022/05/19 04:51:12;;;;;;;3.05;2.70;;;14.90;70.90;;;;;;4993104;28;20047;-76
2022/05/19 04:53:38;;;;;;;3.50;3.00;;;14.90;70.90;;;;;;5028575;28;20034;-76
2022/05/19 04:56:04;;;;;;;5.20;3.63;;;14.90;71.00;;;;;;5012407;28;20030;-76
2022/05/19 04:58:29;;;;;;;6.95;3.53;;;14.90;71.10;;;;;;4986981;28;20046;-77
2022/05/19 05:00:55;;;;;;;4.90;3.53;;;14.90;71.20;;;;;;5002334;28;20033;-76
2022/05/19 05:03:20;;;;;;;6.20;3.67;;;14.90;71.40;;;;;;5020452;28;20433;-77
2022/05/19 05:05:46;;;;;;;5.50;3.35;;;14.90;71.50;;;;;;4989640;28;20101;-77
2022/05/19 05:08:12;;;;;;;4.00;3.22;;;14.90;71.60;;;;;;4987385;28;20394;-76
2022/05/19 05:10:37;;;;;;;3.97;3.40;;;15.00;71.80;;;;;;5005161;28;20037;-76
2022/05/19 05:13:07;;;;;;;5.70;3.47;;;15.00;71.70;;;;;;4997750;28;20033;-76
2022/05/19 05:15:32;;;;;;;6.65;3.75;;;15.00;71.70;;;;;;5007743;28;20615;-76
2022/05/19 05:17:58;;;;;;;4.18;3.42;;;15.10;71.70;;;;;;4994040;28;20041;-77
2022/05/19 05:20:23;;;;;;;4.10;3.70;;;15.10;71.80;;;;;;4999787;28;20060;-77
2022/05/19 05:22:49;;;;;;;3.80;3.35;;;15.10;71.80;;;;;;5011139;28;20088;-76
2022/05/19 05:25:15;;;;;;;4.28;3.60;;;15.20;72.00;;;;;;5023929;28;20037;-76
2022/05/19 05:27:41;;;;;;;5.90;4.13;;;15.20;72.00;;;;;;4981339;28;20059;-76
2022/05/19 05:30:08;;;;;;;5.15;3.70;;;15.30;72.30;;;;;;4997499;28;20048;-76
2022/05/19 05:32:34;;;;;;;4.15;3.75;;;15.30;72.30;;;;;;4998905;28;20037;-76
2022/05/19 05:34:59;;;;;;;7.00;4.13;;;15.40;72.50;;;;;;4989291;28;20041;-76
2022/05/19 05:37:25;;;;;;;4.85;3.35;;;15.40;72.50;;;;;;4986625;28;20057;-76
2022/05/19 05:39:50;;;;;;;7.00;4.53;;;15.50;72.80;;;;;;5026191;28;20117;-76
2022/05/19 05:42:16;;;;;;;5.95;3.80;;;15.50;72.80;;;;;;5012367;28;20053;-77
2022/05/19 05:44:42;;;;;;;4.20;3.65;;;15.60;72.90;;;;;;4983755;28;20104;-77
2022/05/19 05:47:07;;;;;;;4.40;4.00;;;15.60;73.00;;;;;;4984193;28;20038;-76
2022/05/19 05:49:33;;;;;;;5.78;3.47;;;15.60;73.00;;;;;;4996747;28;20034;-76
2022/05/19 05:51:58;;;;;;;4.88;4.13;;;15.70;73.10;;;;;;5033690;28;20045;-76
2022/05/19 05:54:24;;;;;;;4.65;4.13;;;15.80;73.10;;;;;;5017306;28;20061;-75
2022/05/19 05:56:50;;;;;;;6.22;4.10;;;15.80;73.00;;;;;;5033515;28;20056;-75
2022/05/19 05:59:16;;;;;;;5.00;4.30;;;15.90;73.10;;;;;;5014149;28;20030;-76
2022/05/19 06:01:41;;;;;;;6.97;3.80;;;16.00;73.20;;;;;;4976770;28;20040;-77
2022/05/19 06:04:07;;;;;;;5.72;4.38;;;16.10;73.00;;;;;;4993659;28;20033;-75
2022/05/19 06:06:32;;;;;;;7.85;3.75;;;16.10;73.20;;;;;;4964937;28;20036;-75
2022/05/19 06:08:58;;;;;;;5.85;3.67;;;16.30;73.10;;;;;;4997883;28;20025;-76
2022/05/19 06:11:23;;;;;;;5.63;3.80;;;16.30;72.90;;;;;;5012625;28;20034;-75
2022/05/19 06:13:50;;;;;;;7.65;4.07;;;16.50;72.80;;;;;;4999033;28;20112;-77
2022/05/19 06:16:16;;;;;;;7.07;3.50;;;16.60;72.70;;;;;;4973304;28;20091;-76
2022/05/19 06:18:41;;;;;;;5.05;3.50;;;16.70;72.40;;;;;;5007818;28;20041;-77
2022/05/19 06:21:07;;;;;;;5.43;3.35;;;16.80;72.00;;;;;;5000137;28;20088;-75
2022/05/19 06:23:33;;;;;;;4.32;2.80;;;16.90;72.30;;;;;;4987294;28;20118;-76
2022/05/19 06:25:59;;;;;;;6.80;3.60;;;17.10;70.90;;;;;;4996981;28;20036;-75
2022/05/19 06:28:24;;;;;;;4.85;2.90;;;17.20;70.50;;;;;;4999728;28;20033;-76
2022/05/19 06:30:50;;;;;;;6.93;3.10;;;17.30;70.10;;;;;;4999571;28;20091;-76
2022/05/19 06:33:18;;;;;;;3.33;2.60;;;17.40;69.70;;;;;;5011470;28;20069;-75
2022/05/19 06:35:43;;;;;;;4.78;2.63;;;17.60;69.40;;;;;;5000169;28;20033;-76
2022/05/19 06:38:09;;;;;;;5.45;3.03;;;17.70;68.90;;;;;;4993836;28;20052;-75
2022/05/19 06:40:35;;;;;;;6.43;2.92;;;17.90;68.30;;;;;;4994403;28;20479;-76
2022/05/19 06:43:01;;;;;;;6.43;3.10;;;18.00;67.90;;;;;;4985567;28;20064;-75
2022/05/19 06:45:27;;;;;;;4.80;3.03;;;18.10;67.50;;;;;;4984290;28;20826;-76
2022/05/19 06:47:53;;;;;;;4.57;3.25;;;18.30;67.20;;;;;;4993005;28;20069;-75
2022/05/19 06:50:20;;;;;;;8.30;2.90;;;18.40;66.70;;;;;;5004890;28;20278;-75
2022/05/19 06:52:50;;;;;;;4.65;2.47;;;18.50;66.20;;;;;;4989018;28;20037;-76
2022/05/19 06:55:16;;;;;;;4.45;2.70;;;18.70;65.90;;;;;;5005437;28;20091;-76
2022/05/19 06:57:42;;;;;;;3.38;3.08;;;18.80;65.70;;;;;;4990219;28;20553;-76
2022/05/19 07:00:09;;;;;;;3.67;2.65;;;19.00;65.10;;;;;;4993518;28;20041;-76
2022/05/19 07:02:35;;;;;;;6.55;2.90;;;19.10;64.50;;;;;;5005929;28;20502;-76
2022/05/19 07:05:01;;;;;;;5.00;2.50;;;19.30;64.20;;;;;;4980647;28;20041;-76
2022/05/19 07:07:26;;;;;;;4.75;2.30;;;19.40;63.40;;;;;;4962513;28;20038;-76
2022/05/19 07:09:52;;;;;;;5.10;2.60;;;19.50;62.70;;;;;;4989645;28;20456;-76
2022/05/19 07:12:21;;;;;;;2.83;2.20;;;19.70;62.30;;;;;;4991561;28;20037;-75
2022/05/19 07:14:47;;;;;;;4.50;2.03;;;19.80;61.80;;;;;;4972019;28;20669;-75
2022/05/19 07:17:13;;;;;;;4.38;1.83;;;20.00;61.50;;;;;;4975265;28;20135;-76
2022/05/19 07:22:23;;;;;;;2.50;2.20;;;20.30;60.30;;;;;;5009189;28;20056;-76
2022/05/19 07:24:49;;;;;;;3.88;1.95;;;20.50;59.90;;;;;;4994743;28;20335;-77
2022/05/19 07:27:15;;;;;;;3.67;2.38;;;20.70;59.40;;;;;;4993439;28;20037;-76
2022/05/19 07:29:40;;;;;;;6.05;2.47;;;20.80;58.90;;;;;;4975454;28;20044;-76
2022/05/19 07:32:07;;;;;;;4.45;2.05;;;21.00;58.60;;;;;;4992408;28;20049;-76
2022/05/19 07:34:34;;;;;;;5.22;1.80;;;21.10;58.10;;;;;;5029775;28;20131;-77
2022/05/19 07:37:00;;;;;;;6.18;1.83;;;21.30;57.60;;;;;;4984343;28;20053;-76
2022/05/19 07:39:25;;;;;;;2.10;1.70;;;21.40;57.20;;;;;;4994510;28;20116;-76
2022/05/19 07:41:54;;;;;;;6.03;1.98;;;21.60;56.80;;;;;;5027987;28;20554;-77
2022/05/19 07:44:19;;;;;;;2.10;1.90;;;21.80;56.50;;;;;;4989680;28;20054;-76
2022/05/19 07:46:45;;;;;;;3.40;1.90;;;21.90;56.00;;;;;;5012556;28;20076;-76
2022/05/19 07:49:11;;;;;;;5.07;1.80;;;22.10;55.70;;;;;;5000255;28;20421;-77
2022/05/19 07:51:39;;;;;;;2.40;1.75;;;22.30;55.40;;;;;;4982599;28;20040;-76
2022/05/19 07:54:06;;;;;;;6.45;1.98;;;22.50;54.90;;;;;;4981646;28;20034;-77
2022/05/19 07:56:32;;;;;;;4.10;1.60;;;22.70;54.40;;;;;;5008604;28;20034;-76
2022/05/19 07:58:58;;;;;;;19.38;2.97;;;22.80;53.90;;;;;;5012907;28;20034;-75
2022/05/19 08:01:25;;;;;;;5.47;1.85;;;23.10;53.70;;;;;;5017334;28;20038;-76
2022/05/19 08:03:50;;;;;;;2.17;1.60;;;23.20;53.30;;;;;;5001435;28;20033;-76
2022/05/19 08:06:16;;;;;;;4.05;1.70;;;23.40;52.80;;;;;;5035768;28;20042;-74
2022/05/19 08:08:41;;;;;;;3.13;1.58;;;23.60;52.50;;;;;;5016559;28;20036;-76
2022/05/19 08:11:07;;;;;;;6.47;1.90;;;23.80;52.10;;;;;;5018143;28;20057;-75
2022/05/19 08:16:17;;;;;;;3.50;1.30;;;24.10;51.20;;;;;;5021774;28;20076;-76
2022/05/19 08:18:42;;;;;;;3.22;1.70;;;24.40;50.70;;;;;;5012789;28;20037;-76
2022/05/19 08:21:11;;;;;;;5.50;1.35;;;24.60;50.20;;;;;;4995483;28;20033;-76
2022/05/19 08:23:41;;;;;;;3.22;1.63;;;24.90;49.80;;;;;;4995743;28;20033;-76
2022/05/19 08:26:10;;;;;;;2.90;1.55;;;25.00;49.50;;;;;;4998608;28;20062;-76
2022/05/19 08:28:37;;;;;;;2.55;1.73;;;25.30;49.10;;;;;;5001868;28;20405;-76
2022/05/19 08:31:04;;;;;;;3.65;1.63;;;25.50;48.90;;;;;;5009401;28;20042;-76
2022/05/19 08:33:30;;;;;;;2.55;1.45;;;25.70;48.50;;;;;;4985217;28;20058;-77
2022/05/19 08:35:56;;;;;;;1.48;1.38;;;25.90;48.10;;;;;;4986997;28;20041;-76
2022/05/19 08:38:22;;;;;;;2.88;1.38;;;26.10;47.70;;;;;;5002650;28;20049;-77
2022/05/19 08:40:54;;;;;;;3.50;1.65;;;26.30;47.50;;;;;;4994151;28;20049;-76
2022/05/19 08:43:22;;;;;;;3.00;1.23;;;26.50;46.80;;;;;;4999435;28;20830;-76
2022/05/19 08:45:51;;;;;;;2.72;1.38;;;26.80;46.70;;;;;;5016669;28;20036;-76
2022/05/19 08:48:19;;;;;;;4.00;1.40;;;27.00;46.30;;;;;;4995112;28;20421;-76
2022/05/19 08:51:01;;;;;;;4.45;1.67;;;27.20;45.90;;;;;;4990136;28;20120;-76
2022/05/19 08:53:29;;;;;;;1.70;1.33;;;27.40;44.80;;;;;;5013517;28;20033;-75
2022/05/19 08:56:01;;;;;;;2.38;1.40;;;27.60;45.20;;;;;;5016677;28;20042;-76
2022/05/19 08:59:00;;;;;;;1.25;1.10;;;27.80;44.70;;;;;;5003838;28;20497;-75
2022/05/19 09:01:49;;;;;;;4.85;1.48;;;28.00;43.60;;;;;;5019992;28;20045;-77
2022/05/19 09:04:38;;;;;;;3.58;1.58;;;28.10;43.90;;;;;;5022760;28;20033;-76
2022/05/19 09:10:11;;;;;;;2.60;1.45;;;28.40;43.00;;;;;;5023606;28;20071;-75
2022/05/19 09:12:37;;;;;;;2.63;1.45;;;28.50;43.00;;;;;;5010487;28;20022;-76
2022/05/19 09:15:04;;;;;;;7.38;1.40;;;28.70;43.00;;;;;;5025078;28;20030;-77
2022/05/19 09:17:31;;;;;;;4.03;1.38;;;28.80;42.70;;;;;;5012346;28;20025;-76
2022/05/19 09:20:00;;;;;;;2.65;1.38;;;29.00;42.50;;;;;;4997591;28;20060;-76
2022/05/19 09:22:26;;;;;;;5.00;1.83;;;29.10;42.10;;;;;;5007862;28;20064;-77
2022/05/19 09:24:52;;;;;;;9.02;1.65;;;29.40;41.90;;;;;;5020486;28;20526;-75
2022/05/19 09:27:19;;;;;;;1.77;1.17;;;29.50;41.70;;;;;;5038800;28;20095;-76
2022/05/19 09:29:52;;;;;;;2.50;1.40;;;29.60;41.30;;;;;;5004380;28;20033;-76
2022/05/19 09:32:18;;;;;;;2.75;1.20;;;29.80;41.00;;;;;;5023624;28;20105;-76
2022/05/19 09:34:49;;;;;;;3.20;1.48;;;29.90;40.70;;;;;;5016125;28;20033;-76
2022/05/19 09:37:36;;;;;;;3.08;1.45;;;30.10;40.20;;;;;;5040348;28;20041;-76
2022/05/19 09:40:15;;;;;;;2.85;1.23;;;30.30;40.20;;;;;;5021002;28;20038;-76
2022/05/19 09:43:04;;;;;;;2.15;1.52;;;30.50;39.70;;;;;;4997017;28;21142;-76
2022/05/19 09:45:29;;;;;;;3.88;1.30;;;30.70;38.70;;;;;;5034314;28;20026;-76
2022/05/19 09:48:03;;;;;;;2.22;1.23;;;30.70;39.60;;;;;;5024483;28;20116;-76
2022/05/19 09:50:31;;;;;;;4.93;1.67;;;30.90;39.20;;;;;;5008927;28;20040;-76
2022/05/19 09:53:05;;;;;;;2.72;1.17;;;31.10;39.30;;;;;;5007766;28;20035;-76
2022/05/19 09:55:31;;;;;;;2.38;1.60;;;31.20;38.50;;;;;;5016764;28;20124;-76
2022/05/19 09:58:02;;;;;;;2.85;1.13;;;31.40;38.70;;;;;;5005374;28;20048;-77
2022/05/19 10:00:50;;;;;;;2.45;1.30;;;31.50;38.30;;;;;;5025933;28;20041;-77
2022/05/19 10:03:36;;;;;;;2.40;1.52;;;31.50;37.60;;;;;;5006907;28;20091;-76
2022/05/19 10:06:07;;;;;;;2.22;1.40;;;31.60;37.40;;;;;;4988820;28;20038;-77
2022/05/19 10:08:39;;;;;;;2.08;1.13;;;31.80;37.90;;;;;;4997510;28;20053;-77
2022/05/19 10:11:14;;;;;;;8.68;1.60;;;31.90;37.80;;;;;;5019834;28;20460;-76
2022/05/19 10:13:43;;;;;;;1.83;1.20;;;32.10;37.20;;;;;;5025031;28;20092;-76
2022/05/19 10:16:30;;;;;;;1.73;1.10;;;32.30;37.60;;;;;;4999693;28;20105;-76
2022/05/19 10:19:17;;;;;;;1.67;1.25;;;32.40;37.40;;;;;;5021002;28;20045;-76
2022/05/19 10:22:05;;;;;;;3.83;1.40;;;32.60;36.60;;;;;;4991474;28;20029;-77
2022/05/19 10:24:31;;;;;;;2.33;1.42;;;32.70;36.10;;;;;;5017362;28;20045;-76
2022/05/19 10:33:16;;;;;;;4.65;1.50;;;32.90;36.20;;;;;;5036271;28;20065;-76
2022/05/19 10:35:45;;;;;;;4.22;1.33;;;33.10;36.30;;;;;;5015192;28;20562;-76
2022/05/19 10:38:29;;;;;;;3.58;1.30;;;33.20;36.40;;;;;;5016110;28;21646;-75
2022/05/19 10:40:59;;;;;;;5.55;1.38;;;33.30;35.20;;;;;;5035454;28;20076;-76
2022/05/19 10:43:28;;;;;;;3.35;1.20;;;33.30;35.60;;;;;;5013680;28;20277;-77
2022/05/19 10:45:53;;;;;;;4.32;1.50;;;33.30;36.30;;;;;;5022077;28;20117;-77
2022/05/19 10:48:56;;;;;;;3.58;1.30;;;33.40;35.50;;;;;;4998197;28;20065;-77
2022/05/19 10:51:31;;;;;;;1.88;1.25;;;33.40;34.80;;;;;;4997883;28;20036;-76
2022/05/19 10:53:59;;;;;;;4.05;1.55;;;33.50;35.40;;;;;;5035001;28;20042;-76
2022/05/19 10:56:58;;;;;;;2.50;1.30;;;33.70;35.30;;;;;;5019979;28;20057;-77
2022/05/19 10:59:48;;;;;;;3.25;1.63;;;33.80;34.40;;;;;;4979589;28;20044;-77
2022/05/19 11:02:32;;;;;;;4.73;1.50;;;33.90;34.80;;;;;;5034311;28;20040;-77
2022/05/19 11:05:13;;;;;;;3.05;1.10;;;34.10;35.20;;;;;;5034352;28;20029;-77
2022/05/19 11:07:57;;;;;;;3.22;1.42;;;34.10;35.00;;;;;;5017813;28;20040;-77
2022/05/19 11:10:44;;;;;;;2.22;0.98;;;34.20;34.40;;;;;;5023313;28;20029;-75
2022/05/19 11:13:35;;;;;;;2.03;1.17;;;34.40;34.40;;;;;;4981041;28;20089;-75
2022/05/19 11:16:13;;;;;;;1.63;1.40;;;34.50;34.60;;;;;;5000545;28;20117;-74
2022/05/19 11:18:49;;;;;;;4.72;1.30;;;34.60;34.40;;;;;;5002411;28;20057;-76
2022/05/19 11:21:27;;;;;;;5.00;1.30;;;34.70;34.60;;;;;;4976008;28;20528;-74
2022/05/19 11:24:14;;;;;;;4.55;1.67;;;34.80;34.50;;;;;;4977253;28;20033;-74
2022/05/19 11:27:00;;;;;;;5.00;1.30;;;34.90;33.50;;;;;;5002235;28;20498;-74
2022/05/19 11:29:49;;;;;;;2.35;1.50;;;35.00;34.10;;;;;;5007947;28;20116;-75
2022/05/19 11:32:20;;;;;;;2.92;1.17;;;35.20;33.20;;;;;;4990391;28;20487;-75
2022/05/19 11:35:22;;;;;;;2.88;1.15;;;35.30;33.70;;;;;;4975020;28;20041;-75
2022/05/19 11:37:57;;;;;;;2.63;1.17;;;35.40;32.90;;;;;;4978296;28;20033;-75
2022/05/19 11:40:45;;;;;;;4.00;1.60;;;35.60;33.20;;;;;;4991529;28;20100;-75
2022/05/19 11:43:16;;;;;;;4.78;1.20;;;35.70;32.80;;;;;;4984309;28;20064;-74
2022/05/19 11:45:52;;;;;;;3.17;1.40;;;35.80;33.10;;;;;;4950518;28;20175;-75
2022/05/19 11:57:18;;;;;;;15.10;3.03;;;36.40;32.70;;;;;;4988571;28;20060;-74
2022/05/19 11:59:48;;;;;;;5.72;1.30;;;36.60;32.80;;;;;;4991828;28;20034;-74
2022/05/19 12:02:15;;;;;;;6.90;1.50;;;36.70;32.70;;;;;;4975801;28;20034;-74
2022/05/19 12:04:41;;;;;;;3.83;1.40;;;36.70;32.60;;;;;;4980627;28;20026;-73
2022/05/19 12:07:09;;;;;;;3.38;1.60;;;36.90;32.60;;;;;;4991506;28;20110;-75
2022/05/19 12:09:38;;;;;;;3.45;1.80;;;37.00;32.40;;;;;;4991241;28;20062;-74
2022/05/19 12:12:06;;;;;;;3.20;1.25;;;37.10;32.30;;;;;;5010213;28;20757;-75
2022/05/19 12:14:31;;;;;;;5.95;1.20;;;37.20;32.20;;;;;;4994064;28;20037;-75
2022/05/19 12:16:59;;;;;;;3.17;1.33;;;37.30;32.10;;;;;;4993757;28;20042;-75
2022/05/19 12:19:36;;;;;;;3.85;1.20;;;37.40;31.90;;;;;;5010547;28;20046;-74
2022/05/19 12:22:28;;;;;;;2.75;1.45;;;37.40;31.50;;;;;;4990237;28;20042;-75
2022/05/19 12:24:54;;;;;;;4.95;1.30;;;37.40;31.50;;;;;;5025537;28;20060;-75
2022/05/19 12:27:24;;;;;;;1.55;1.23;;;37.40;31.60;;;;;;5025838;28;20069;-75
2022/05/19 12:33:27;;;;;;;1.48;1.20;;;37.40;31.60;;;;;;5034220;28;19940;-75
2022/05/19 12:35:59;;;;;;;3.17;1.42;;;37.40;31.20;;;;;;5034839;28;20045;-75
2022/05/19 12:38:33;;;;;;;7.78;1.63;;;37.40;31.30;;;;;;4989268;28;20042;-75
2022/05/19 12:41:04;;;;;;;2.05;1.20;;;37.30;31.40;;;;;;5000454;28;20057;-76
2022/05/19 12:43:36;;;;;;;1.40;1.10;;;37.40;31.60;;;;;;5012806;28;20049;-75
2022/05/19 12:46:02;;;;;;;3.13;1.52;;;37.40;31.60;;;;;;4986285;28;20068;-76
2022/05/19 12:48:34;;;;;;;4.97;1.42;;;37.50;31.40;;;;;;4999095;28;20045;-74
2022/05/19 12:51:08;;;;;;;5.25;1.40;;;37.60;31.10;;;;;;5017831;28;20044;-75
2022/05/19 12:53:51;;;;;;;4.25;1.17;;;37.60;30.80;;;;;;5008639;28;20148;-75
2022/05/19 12:56:40;;;;;;;3.85;1.20;;;37.70;30.50;;;;;;5025838;28;20091;-75
2022/05/19 12:59:09;;;;;;;2.58;1.13;;;37.80;30.40;;;;;;5023539;28;20052;-74
2022/05/19 13:01:37;;;;;;;3.58;1.30;;;37.90;31.00;;;;;;4976730;28;20048;-76
2022/05/19 13:04:04;;;;;;;1.90;1.13;;;37.90;30.90;;;;;;5003670;28;20060;-74
2022/05/19 13:06:29;;;;;;;4.40;1.60;;;38.00;30.90;;;;;;5031295;28;20188;-74
2022/05/19 13:08:55;;;;;;;2.35;1.20;;;38.00;30.90;;;;;;5017821;28;20057;-75
2022/05/19 13:11:32;;;;;;;3.25;1.05;;;38.10;30.60;;;;;;4993402;28;20034;-73
2022/05/19 13:14:00;;;;;;;5.53;1.42;;;38.20;30.00;;;;;;4981811;28;20037;-74
2022/05/19 13:16:27;;;;;;;3.47;1.40;;;38.20;30.40;;;;;;4986737;28;20083;-74
2022/05/19 13:18:55;;;;;;;1.27;1.17;;;38.20;30.20;;;;;;4989584;28;20073;-74
2022/05/19 13:21:22;;;;;;;2.03;1.40;;;38.20;30.10;;;;;;4975845;28;20087;-74
2022/05/19 13:23:48;;;;;;;5.18;1.30;;;38.30;30.20;;;;;;4998079;28;20034;-74
2022/05/19 13:26:27;;;;;;;2.45;1.30;;;38.30;30.10;;;;;;4993338;28;20501;-75
2022/05/19 13:31:53;;;;;;;7.70;1.35;;;38.40;30.10;;;;;;4982449;28;20032;-75
2022/05/19 13:34:19;;;;;;;2.95;1.30;;;38.50;30.10;;;;;;4993179;28;20144;-74